Time;durP1;ratioP1;P1;durP2;ratioP2;P2;SDS_P1;SDS_P2;PMS_P1;PMS_P2;Temp;Humidity;BMP_temperature;BMP_pressure;BME280_temperature;BME280_humidity;BME280_pressure;Samples;Min_cycle;Max_cycle;Signal;HPM_P1;HPM_P2
2022/08/26 11:18:41;;;;;;;6.33;1.23;;;22.70;99.10;;;22.21;64.76;101566.19;5116603;22;1613622;-77
2022/08/26 11:20:46;;;;;;;4.07;1.20;;;22.80;98.80;;;22.39;63.93;101578.94;5096159;23;20245;-77
2022/08/26 11:22:50;;;;;;;6.22;1.90;;;22.90;98.20;;;22.32;63.43;101581.66;5096734;23;20017;-78
2022/08/26 11:24:54;;;;;;;6.70;1.08;;;22.90;98.10;;;22.31;61.91;101582.69;5123080;23;20043;-77
2022/08/26 11:26:55;;;;;;;;;;;22.90;97.00;;;22.21;62.06;101554.63;5123331;23;20012;-78
2022/08/26 11:28:57;;;;;;;3.78;0.80;;;22.90;97.40;;;22.32;61.17;101568.22;5096413;23;20350;-78
2022/08/26 11:30:58;;;;;;;2.92;0.60;;;23.00;96.50;;;22.30;62.32;101554.19;5097096;23;20006;-78
2022/08/26 11:32:59;;;;;;;2.92;1.17;;;23.10;97.40;;;22.41;65.11;101575.00;5096950;23;20002;-78
2022/08/26 11:35:03;;;;;;;4.57;0.93;;;23.10;98.30;;;22.54;62.77;101576.81;5073561;23;20024;-78
2022/08/26 11:37:15;;;;;;;5.28;0.93;;;23.20;97.50;;;22.30;62.09;101564.09;5124333;23;20005;-78
2022/08/26 11:39:47;;;;;;;2.78;0.82;;;23.10;96.70;;;22.46;62.16;101542.13;5099565;23;20001;-78
2022/08/26 11:41:54;;;;;;;2.53;0.90;;;23.20;97.00;;;22.67;61.11;101579.47;5076334;23;20342;-78
2022/08/26 11:43:58;;;;;;;4.07;0.80;;;23.40;96.60;;;22.70;61.79;101565.56;5074571;23;20013;-78
2022/08/26 11:46:06;;;;;;;3.13;0.70;;;23.40;96.70;;;22.76;61.57;101556.66;5098261;23;20012;-78
2022/08/26 11:48:40;;;;;;;4.38;1.30;;;23.40;96.70;;;22.54;59.81;101541.88;5073738;23;20068;-78
2022/08/26 11:51:03;;;;;;;5.95;1.15;;;23.40;95.70;;;22.50;60.88;101554.06;5071050;23;20033;-77
2022/08/26 11:53:05;;;;;;;5.47;1.05;;;23.30;95.20;;;22.56;63.60;101539.78;5098396;23;20005;-78
2022/08/26 11:55:13;;;;;;;3.45;0.82;;;23.30;97.10;;;22.32;60.20;101532.44;5124498;23;20340;-78
2022/08/26 11:57:14;;;;;;;6.15;0.80;;;23.20;95.40;;;22.27;60.86;101538.47;5096786;23;20012;-78
2022/08/26 11:59:35;;;;;;;2.70;0.98;;;23.10;95.90;;;22.21;61.10;101533.94;5121836;23;20084;-77
2022/08/26 12:01:44;;;;;;;3.65;1.13;;;23.10;96.40;;;22.23;60.87;101525.66;5096322;23;20013;-77
2022/08/26 12:03:50;;;;;;;2.08;0.90;;;23.10;95.70;;;22.23;59.59;101518.44;5097187;23;20398;-78
2022/08/26 12:05:52;;;;;;;4.18;1.05;;;23.10;95.30;;;22.38;60.42;101510.09;5097302;23;20005;-78
2022/08/26 12:07:54;;;;;;;3.72;1.27;;;23.20;95.70;;;22.51;62.21;101515.41;5123004;23;20001;-77
2022/08/26 12:10:02;;;;;;;2.97;0.90;;;23.30;96.40;;;22.80;61.24;101528.28;5097618;23;20002;-78
2022/08/26 12:12:22;;;;;;;3.63;0.70;;;23.40;96.20;;;22.72;58.21;101520.47;5123835;23;20008;-79
2022/08/26 12:14:25;;;;;;;3.13;0.73;;;23.50;94.70;;;22.95;60.49;101539.56;5097604;23;20001;-78
2022/08/26 12:16:35;;;;;;;2.95;0.95;;;23.60;95.70;;;22.85;58.97;101524.94;5122970;23;20342;-79
2022/08/26 12:18:37;;;;;;;3.78;1.02;;;23.60;94.80;;;22.95;59.55;101539.56;5122789;23;20079;-78
2022/08/26 12:20:52;;;;;;;2.67;0.73;;;23.60;95.10;;;22.89;57.83;101518.91;5018920;23;20006;-79
2022/08/26 12:22:54;;;;;;;2.67;0.80;;;23.70;94.30;;;22.98;56.15;101520.28;5072481;23;20041;-78
2022/08/26 12:25:06;;;;;;;5.72;1.17;;;23.80;93.70;;;23.00;55.54;101502.03;5098130;23;20002;-78
2022/08/26 12:27:22;;;;;;;2.38;0.80;;;23.70;93.40;;;23.21;55.30;101526.97;5097333;23;20341;-78
2022/08/26 12:29:26;;;;;;;4.57;1.80;;;23.90;93.30;;;22.93;56.56;101522.81;5098382;23;20530;-79
2022/08/26 12:31:38;;;;;;;3.55;1.00;;;23.80;93.20;;;22.89;53.80;101516.22;5097453;23;20006;-78
2022/08/26 12:33:39;;;;;;;2.78;1.20;;;23.70;91.80;;;22.86;54.40;101497.81;5098538;23;20012;-78
2022/08/26 12:35:40;;;;;;;2.55;0.77;;;23.70;92.20;;;23.04;55.29;101516.72;5097174;23;20084;-78
2022/08/26 12:37:47;;;;;;;2.78;0.60;;;23.70;92.90;;;22.96;55.35;101503.56;5098418;23;20005;-78
2022/08/26 12:39:48;;;;;;;2.53;0.77;;;23.80;92.80;;;23.31;57.52;101519.19;5096925;23;20014;-78
2022/08/26 12:42:15;;;;;;;4.93;1.33;;;23.90;93.90;;;23.07;56.19;101499.31;5121623;23;20036;-78
2022/08/26 12:44:42;;;;;;;3.58;1.65;;;24.00;92.90;;;23.15;55.45;101494.47;5097034;23;20010;-78
2022/08/26 12:46:43;;;;;;;5.80;1.15;;;24.00;92.60;;;23.45;56.14;101500.03;5097268;23;20068;-76
2022/08/26 12:48:48;;;;;;;4.25;1.63;;;24.10;93.40;;;23.74;53.98;101494.97;5096484;23;20442;-78
2022/08/26 12:50:51;;;;;;;3.10;0.90;;;24.40;92.30;;;23.80;53.25;101510.25;5097329;23;20024;-79
2022/08/26 12:52:57;;;;;;;2.95;0.82;;;24.50;91.90;;;23.84;54.38;101514.13;5097115;23;20005;-78
2022/08/26 12:55:21;;;;;;;2.05;0.80;;;24.50;92.20;;;23.72;54.55;101479.03;5096939;23;20016;-78
2022/08/26 12:57:35;;;;;;;3.15;0.70;;;24.60;92.30;;;23.98;54.62;101489.50;5073417;23;20013;-78
2022/08/26 12:59:36;;;;;;;3.28;1.15;;;24.60;92.50;;;24.03;55.36;101486.13;5091710;23;20014;-77
2022/08/26 13:01:43;;;;;;;3.13;0.77;;;24.70;92.90;;;24.08;53.25;101487.09;5095581;23;20075;-79
2022/08/26 13:03:45;;;;;;;3.22;0.82;;;24.70;92.00;;;24.07;53.08;101476.56;5096022;23;20006;-78
2022/08/26 13:05:46;;;;;;;4.75;0.80;;;24.70;91.90;;;24.21;52.59;101481.56;5071466;23;20028;-78
2022/08/26 13:08:14;;;;;;;4.00;1.00;;;24.80;91.70;;;24.12;52.90;101485.63;5096341;23;20002;-78
2022/08/26 13:10:37;;;;;;;3.45;0.73;;;24.80;91.60;;;24.13;52.26;101479.16;5096526;23;20010;-79
2022/08/26 13:12:39;;;;;;;5.03;1.10;;;24.80;91.20;;;24.13;51.28;101475.69;5096009;23;20009;-79
2022/08/26 13:14:40;;;;;;;3.28;0.77;;;24.80;90.50;;;24.10;52.48;101474.22;5098432;23;20008;-78
2022/08/26 13:16:42;;;;;;;2.60;0.68;;;24.80;91.00;;;24.14;52.33;101461.13;5098460;23;20006;-79
2022/08/26 13:18:44;;;;;;;4.75;0.75;;;24.90;91.00;;;24.28;52.85;101484.19;5111998;23;20016;-78
2022/08/26 13:20:44;;;;;;;2.80;0.80;;;24.90;91.40;;;24.04;51.67;101487.78;5097732;23;20093;-79
2022/08/26 13:22:48;;;;;;;3.95;0.95;;;24.90;90.20;;;23.93;53.02;101475.03;5123564;23;20009;-79
2022/08/26 13:24:53;;;;;;;4.93;1.92;;;24.80;90.80;;;24.13;53.68;101456.81;5123659;23;20024;-79
2022/08/26 13:26:55;;;;;;;4.10;0.73;;;24.90;91.30;;;24.22;52.19;101458.13;5097753;23;20087;-77
2022/08/26 13:28:56;;;;;;;5.03;1.00;;;25.00;90.50;;;24.25;50.93;101451.47;5092116;23;20079;-77
2022/08/26 13:30:57;;;;;;;4.45;1.30;;;25.10;90.00;;;24.30;51.10;101465.06;5072152;23;20430;-78
2022/08/26 13:32:59;;;;;;;2.75;0.90;;;25.20;89.60;;;24.26;50.65;101453.91;5096310;23;20006;-78
2022/08/26 13:35:01;;;;;;;5.32;1.48;;;25.30;89.20;;;24.56;49.69;101470.06;5096865;23;20092;-79
2022/08/26 13:37:03;;;;;;;6.18;1.15;;;25.40;87.70;;;24.57;50.27;101450.97;5095486;23;20128;-78
2022/08/26 13:39:05;;;;;;;3.50;0.70;;;25.50;89.10;;;24.73;49.78;101450.28;5122322;23;20009;-78
2022/08/26 13:41:06;;;;;;;4.75;0.85;;;25.60;88.10;;;24.86;49.06;101460.09;5096669;23;20006;-78
2022/08/26 13:43:07;;;;;;;4.45;0.75;;;25.70;87.40;;;24.82;48.73;101448.09;5120434;23;20462;-77
2022/08/26 13:45:09;;;;;;;2.85;1.13;;;25.80;87.20;;;24.88;48.59;101440.97;5096087;23;20005;-77
2022/08/26 13:47:10;;;;;;;6.65;1.65;;;25.80;86.80;;;25.02;49.50;101445.91;5097027;23;20064;-77
2022/08/26 13:49:11;;;;;;;3.22;0.88;;;25.90;88.00;;;24.93;49.54;101444.63;5095997;23;20021;-79
2022/08/26 13:51:12;;;;;;;4.38;1.20;;;25.90;87.40;;;25.16;48.37;101441.09;5096340;23;20002;-77
2022/08/26 13:53:15;;;;;;;3.28;0.90;;;26.00;87.10;;;25.24;48.46;101462.34;5096053;23;20009;-77
2022/08/26 13:55:16;;;;;;;6.68;0.80;;;26.00;86.50;;;25.05;47.66;101450.84;5095761;23;20084;-78
2022/08/26 13:57:17;;;;;;;4.82;1.15;;;26.00;85.20;;;25.06;47.75;101443.56;5096367;23;20009;-78
2022/08/26 13:59:18;;;;;;;1.73;0.90;;;26.00;85.40;;;25.09;47.96;101426.91;5057848;23;20019;-77
2022/08/26 14:01:19;;;;;;;3.00;0.73;;;26.00;85.40;;;25.28;48.99;101440.03;4976431;23;20018;-78
2022/08/26 14:03:21;;;;;;;2.75;1.55;;;26.10;87.00;;;25.21;48.72;101452.81;5022343;23;20018;-78
2022/08/26 14:05:22;;;;;;;3.67;1.05;;;26.00;86.00;;;25.12;50.15;101438.03;5021633;23;20415;-78
2022/08/26 14:07:25;;;;;;;9.60;1.15;;;26.00;87.70;;;24.92;47.55;101448.38;4998497;23;20012;-78
2022/08/26 14:09:26;;;;;;;8.32;1.00;;;25.90;84.00;;;24.54;46.95;101429.03;4998249;23;20018;-77
2022/08/26 14:11:28;;;;;;;2.65;0.80;;;25.60;82.10;;;24.60;48.89;101428.94;4998142;23;20015;-77
2022/08/26 14:13:29;;;;;;;4.40;1.05;;;25.50;85.70;;;24.72;49.13;101428.94;5064902;23;20044;-76
2022/08/26 14:15:36;;;;;;;3.95;1.08;;;25.50;85.80;;;24.64;47.15;101429.28;5072383;23;20006;-79
2022/08/26 14:17:38;;;;;;;2.78;0.93;;;25.50;83.20;;;24.91;47.60;101427.81;5096479;23;20071;-77
2022/08/26 14:19:43;;;;;;;3.55;0.95;;;25.60;85.00;;;25.06;47.36;101421.97;5071620;23;20088;-78
2022/08/26 14:21:45;;;;;;;2.85;0.98;;;25.70;84.60;;;24.97;47.19;101415.28;5095615;23;20505;-78
2022/08/26 14:23:46;;;;;;;4.63;1.25;;;25.80;83.80;;;24.91;47.76;101417.00;5095524;23;20009;-78
2022/08/26 14:25:47;;;;;;;2.80;0.98;;;25.80;84.30;;;24.85;46.22;101425.25;5097859;23;20014;-78
2022/08/26 14:27:49;;;;;;;4.75;1.35;;;25.70;82.30;;;24.77;46.68;101416.41;5097565;23;20051;-78
2022/08/26 14:29:51;;;;;;;4.40;0.82;;;25.60;82.40;;;24.70;49.27;101412.19;5096851;23;20421;-78
2022/08/26 14:31:55;;;;;;;4.75;1.05;;;25.50;85.80;;;24.43;48.57;101416.34;5096884;23;20042;-78
2022/08/26 14:34:06;;;;;;;3.45;0.70;;;25.40;84.30;;;24.59;48.35;101421.88;5096885;23;20010;-78
2022/08/26 14:38:28;;;;;;;4.63;1.10;;;25.20;84.00;;;24.25;49.61;101409.16;5096778;23;20017;-78
2022/08/26 14:40:31;;;;;;;4.40;1.23;;;25.00;85.80;;;24.00;47.13;101414.63;5094236;23;20337;-78
2022/08/26 14:42:33;;;;;;;3.83;0.82;;;25.00;82.30;;;23.98;47.95;101403.28;5094629;23;20014;-78
2022/08/26 14:44:34;;;;;;;3.42;1.02;;;24.80;83.30;;;24.07;48.65;101401.88;5095855;23;20037;-77
2022/08/26 14:46:45;;;;;;;3.55;0.98;;;24.80;85.10;;;24.10;48.24;101401.44;5071575;23;20010;-77
2022/08/26 14:48:46;;;;;;;2.45;0.95;;;24.80;84.10;;;24.01;47.97;101396.59;5096371;23;20009;-78
2022/08/26 14:50:47;;;;;;;3.50;1.10;;;24.80;84.00;;;24.14;48.62;101397.25;5097266;23;20006;-77
2022/08/26 14:55:09;;;;;;;2.60;1.00;;;24.90;85.80;;;24.16;49.01;101394.34;5096099;23;20087;-79
2022/08/26 14:57:13;;;;;;;2.08;0.80;;;24.90;84.70;;;24.21;48.38;101389.91;5097563;23;20013;-78
2022/08/26 14:59:19;;;;;;;2.83;0.90;;;25.00;84.30;;;24.38;48.72;101391.91;5120737;23;20019;-78
2022/08/26 15:01:20;;;;;;;1.67;0.80;;;25.00;84.40;;;24.30;48.13;101392.25;5097727;23;20017;-77
2022/08/26 15:03:21;;;;;;;3.20;0.80;;;25.10;83.60;;;24.11;46.93;101381.53;5095326;23;20009;-77
2022/08/26 15:05:22;;;;;;;4.57;1.00;;;25.00;81.80;;;24.07;48.11;101385.69;5096583;23;20009;-79
2022/08/26 15:07:23;;;;;;;2.60;1.00;;;25.00;83.00;;;24.20;45.69;101382.03;5095541;23;20028;-77
2022/08/26 15:09:26;;;;;;;3.80;1.00;;;25.00;80.30;;;24.22;45.93;101391.53;5097609;23;20002;-79
2022/08/26 15:11:27;;;;;;;3.80;1.10;;;25.00;80.40;;;24.17;46.58;101377.09;5095751;23;20005;-78
2022/08/26 15:13:29;;;;;;;3.30;0.90;;;25.00;81.50;;;24.29;47.23;101399.53;5096476;23;20097;-78
2022/08/26 15:15:30;;;;;;;2.90;1.13;;;25.00;81.90;;;24.18;46.69;101374.19;5095930;23;20016;-78
2022/08/26 15:17:31;;;;;;;3.15;0.88;;;25.00;81.60;;;24.37;46.77;101379.50;5097047;23;20032;-78
2022/08/26 15:19:32;;;;;;;3.00;0.88;;;25.10;81.90;;;24.49;47.35;101380.34;5120567;23;20434;-78
2022/08/26 15:21:34;;;;;;;3.20;1.10;;;25.20;82.60;;;24.70;47.98;101401.38;5121963;23;20005;-78
2022/08/26 15:23:38;;;;;;;3.83;0.80;;;25.30;83.30;;;24.56;48.44;101381.06;5121682;23;20437;-78
2022/08/26 15:25:41;;;;;;;3.05;1.27;;;25.40;83.70;;;24.58;47.73;101393.25;5096309;23;20005;-78
2022/08/26 15:27:42;;;;;;;6.07;1.70;;;25.40;81.80;;;24.57;48.71;101390.81;5096530;23;20001;-77
2022/08/26 15:29:44;;;;;;;2.72;0.80;;;25.30;83.90;;;24.17;47.77;101367.13;5120816;23;20063;-77
2022/08/26 15:31:45;;;;;;;2.53;0.80;;;25.20;82.30;;;24.34;48.27;101371.88;5096016;23;20362;-77
2022/08/26 15:33:46;;;;;;;1.92;1.10;;;25.20;83.20;;;24.46;48.06;101375.44;5122045;23;20028;-76
2022/08/26 15:35:47;;;;;;;3.78;1.02;;;25.20;83.00;;;24.62;46.80;101375.56;5122358;23;20072;-77
2022/08/26 15:37:47;;;;;;;4.75;1.60;;;25.30;81.90;;;24.78;48.31;101382.16;5096310;23;20020;-79
2022/08/26 15:39:49;;;;;;;2.72;0.70;;;25.40;83.60;;;24.63;47.04;101368.28;5122935;23;20733;-78
2022/08/26 15:41:50;;;;;;;2.55;1.05;;;25.40;82.50;;;24.61;47.31;101381.19;5096434;23;20009;-78
2022/08/26 15:43:51;;;;;;;2.63;0.95;;;25.40;82.00;;;24.65;46.68;101352.69;5096249;23;20017;-79
2022/08/26 15:45:53;;;;;;;4.22;1.20;;;25.40;81.40;;;24.72;46.43;101356.91;5123030;23;20029;-79
2022/08/26 15:47:55;;;;;;;3.22;1.00;;;25.50;81.10;;;24.74;45.61;101348.56;5072473;23;20010;-79
2022/08/26 15:49:56;;;;;;;3.03;0.80;;;25.50;80.60;;;24.98;46.04;101365.63;5122808;23;20337;-78
2022/08/26 15:51:57;;;;;;;2.80;0.93;;;25.50;81.10;;;25.04;46.66;101352.00;5122425;23;20061;-79
2022/08/26 15:54:00;;;;;;;3.78;1.00;;;25.60;82.00;;;25.05;45.59;101369.84;5121153;23;20056;-79
2022/08/26 15:56:01;;;;;;;3.65;1.20;;;25.60;80.20;;;24.69;45.76;101360.09;5072587;23;20017;-78
2022/08/26 15:58:03;;;;;;;3.08;1.20;;;25.50;79.90;;;24.15;45.43;101344.16;5072339;23;20013;-79
2022/08/26 16:00:05;;;;;;;3.35;0.90;;;25.20;78.60;;;24.05;46.03;101360.03;5096657;23;20005;-78
2022/08/26 16:02:06;;;;;;;3.65;0.90;;;24.90;79.30;;;23.95;47.98;101332.81;5122742;23;20016;-79
2022/08/26 16:04:08;;;;;;;2.05;0.85;;;24.70;82.00;;;23.90;47.97;101335.38;5096615;23;20411;-79
2022/08/26 16:06:13;;;;;;;4.10;1.10;;;24.60;82.10;;;24.00;48.18;101352.66;5122769;23;20033;-79
2022/08/26 16:08:16;;;;;;;5.07;0.88;;;24.60;82.60;;;23.71;48.37;101323.00;5096326;23;20386;-78
2022/08/26 16:10:17;;;;;;;2.65;1.00;;;24.50;82.20;;;23.75;48.06;101359.19;5096623;23;20037;-78
2022/08/26 16:12:18;;;;;;;5.15;1.02;;;24.40;81.90;;;23.54;47.74;101334.41;5122958;23;20005;-79
2022/08/26 16:14:19;;;;;;;1.80;0.70;;;24.40;81.40;;;23.46;47.98;101326.63;5096698;23;20089;-79
2022/08/26 16:16:20;;;;;;;3.65;0.98;;;24.30;81.60;;;23.47;48.69;101333.69;5096538;23;20006;-79
2022/08/26 16:18:21;;;;;;;2.63;0.70;;;24.20;82.60;;;23.45;48.77;101324.16;5096307;23;20442;-78
2022/08/26 16:20:22;;;;;;;4.35;1.10;;;24.20;82.70;;;23.45;49.90;101327.69;5123463;23;20001;-79
2022/08/26 16:22:23;;;;;;;4.82;0.95;;;24.20;84.20;;;23.44;49.47;101344.06;5123752;23;20009;-79
2022/08/26 16:24:24;;;;;;;4.60;1.25;;;24.10;83.30;;;23.31;49.35;101336.94;5124115;23;20001;-79
2022/08/26 16:26:31;;;;;;;4.70;1.25;;;24.10;82.90;;;23.06;49.17;101320.84;5098190;23;20060;-79
2022/08/26 16:28:32;;;;;;;2.22;0.70;;;24.00;83.10;;;23.08;49.28;101348.38;5124082;23;20005;-78
2022/08/26 16:30:32;;;;;;;2.42;0.80;;;23.90;82.80;;;22.89;49.19;101325.19;5124084;23;20315;-78
2022/08/26 16:32:33;;;;;;;2.03;0.65;;;23.70;82.90;;;22.95;49.36;101347.69;5097832;23;20010;-79
2022/08/26 16:34:35;;;;;;;1.92;0.65;;;23.70;82.90;;;22.96;49.92;101333.19;5124041;23;20323;-78
2022/08/26 16:36:38;;;;;;;2.05;0.85;;;23.70;83.90;;;23.08;49.48;101331.41;5073099;23;20010;-78
2022/08/26 16:38:40;;;;;;;2.37;0.80;;;23.80;83.60;;;23.19;50.16;101321.75;5097966;23;20342;-79
2022/08/26 16:40:41;;;;;;;3.67;0.70;;;23.90;84.80;;;23.11;49.67;101323.72;5097914;23;20013;-79
2022/08/26 16:42:43;;;;;;;1.63;0.60;;;23.90;83.30;;;23.39;50.12;101341.22;5097481;23;20014;-78
2022/08/26 16:44:44;;;;;;;3.20;0.93;;;24.00;84.50;;;23.49;50.49;101319.97;5123974;23;20001;-78
2022/08/26 16:46:45;;;;;;;2.63;1.45;;;24.20;85.10;;;23.44;49.14;101304.50;5124078;23;20453;-78
2022/08/26 16:48:46;;;;;;;2.10;0.77;;;24.30;83.30;;;23.73;49.90;101310.94;5124235;23;20001;-79
2022/08/26 16:50:48;;;;;;;2.20;0.75;;;24.40;84.50;;;23.85;48.31;101316.38;5123933;23;20036;-78
2022/08/26 16:52:53;;;;;;;4.20;0.80;;;24.50;82.80;;;24.09;48.58;101328.88;5097486;23;20469;-78
2022/08/26 16:54:54;;;;;;;1.92;0.70;;;24.60;83.60;;;24.10;48.87;101323.28;5097848;23;20006;-78
2022/08/26 16:56:55;;;;;;;4.70;0.93;;;24.80;83.60;;;24.18;49.17;101322.97;5123886;23;20005;-78
2022/08/26 16:58:56;;;;;;;2.50;0.75;;;24.80;83.80;;;24.13;49.48;101319.31;5123884;23;20080;-78
2022/08/26 17:00:57;;;;;;;3.67;1.15;;;24.80;84.10;;;24.23;49.09;101341.94;5097732;23;20036;-78
2022/08/26 17:03:00;;;;;;;2.35;0.93;;;24.80;83.80;;;24.08;49.11;101319.97;5097553;23;20005;-78
2022/08/26 17:05:01;;;;;;;2.00;0.70;;;24.70;83.90;;;24.04;48.79;101326.06;5097688;23;20009;-79
2022/08/26 17:07:01;;;;;;;2.38;0.70;;;24.60;83.10;;;23.75;48.22;101311.53;5097453;23;20005;-79
2022/08/26 17:09:03;;;;;;;5.75;1.30;;;24.50;82.20;;;23.67;49.93;101319.94;5097748;23;20005;-79
2022/08/26 17:11:04;;;;;;;3.60;0.82;;;24.30;84.10;;;23.54;50.00;101304.78;5097888;23;20009;-79
2022/08/26 17:13:05;;;;;;;1.35;0.50;;;24.30;84.50;;;23.52;49.64;101316.81;5097712;23;20470;-79
2022/08/26 17:15:08;;;;;;;3.08;0.60;;;24.20;84.20;;;23.54;51.11;101314.72;5097543;23;20012;-79
2022/08/26 17:17:09;;;;;;;2.42;0.70;;;24.20;85.40;;;23.46;50.38;101312.34;5123914;23;20012;-79
2022/08/26 17:19:10;;;;;;;3.38;1.27;;;24.10;84.60;;;23.36;50.64;101309.31;5097414;23;20013;-78
2022/08/26 17:21:12;;;;;;;2.15;0.77;;;24.00;85.00;;;23.36;51.40;101301.25;5123725;23;20020;-79
2022/08/26 17:23:14;;;;;;;4.20;0.67;;;23.90;86.10;;;23.37;51.48;101314.50;5123521;23;20009;-79
2022/08/26 17:25:29;;;;;;;3.03;0.65;;;23.90;85.90;;;23.14;50.70;101303.59;5097531;23;20040;-79
2022/08/26 17:27:30;;;;;;;3.03;0.77;;;23.80;86.10;;;23.06;50.75;101307.41;5123888;23;20001;-79
2022/08/26 17:29:31;;;;;;;3.92;1.27;;;23.70;84.40;;;22.92;50.96;101303.22;5097569;23;20008;-78
2022/08/26 17:31:32;;;;;;;1.77;0.80;;;23.60;85.00;;;23.02;51.37;101327.75;5097480;23;20457;-78
2022/08/26 17:33:33;;;;;;;4.15;1.35;;;23.60;85.40;;;22.88;51.86;101306.59;5097521;23;20028;-78
2022/08/26 17:35:34;;;;;;;3.88;1.15;;;23.50;86.00;;;22.59;51.43;101298.13;5097468;23;20005;-79
2022/08/26 17:37:35;;;;;;;4.30;0.95;;;23.40;85.30;;;22.57;51.99;101310.16;5096349;23;20009;-79
2022/08/26 17:39:41;;;;;;;2.75;0.60;;;23.30;85.80;;;22.53;52.52;101299.03;5123779;23;20009;-78
2022/08/26 17:41:42;;;;;;;4.15;0.93;;;23.20;86.60;;;22.44;52.26;101308.41;5123644;23;20009;-78
2022/08/26 17:43:43;;;;;;;3.53;0.82;;;23.10;86.20;;;22.40;52.04;101309.06;5097471;23;20411;-78
2022/08/26 17:45:44;;;;;;;2.53;0.60;;;23.10;86.10;;;22.31;52.18;101313.09;5123660;23;20008;-78
2022/08/26 17:47:45;;;;;;;3.38;0.60;;;23.00;85.80;;;22.21;52.79;101297.44;5072992;23;20049;-78
2022/08/26 17:49:46;;;;;;;2.22;0.60;;;22.90;86.70;;;22.14;53.05;101301.19;5097418;23;20002;-78
2022/08/26 17:51:47;;;;;;;3.03;0.90;;;22.80;86.90;;;22.11;53.13;101301.63;5123164;23;20001;-79
2022/08/26 17:53:50;;;;;;;2.72;0.70;;;22.80;87.00;;;22.01;52.76;101294.88;5123626;23;20009;-78
2022/08/26 17:55:51;;;;;;;3.78;0.95;;;22.80;86.40;;;21.99;53.28;101307.72;5122054;23;20009;-78
2022/08/26 17:57:52;;;;;;;5.28;1.02;;;22.70;86.90;;;21.92;52.76;101295.38;5097649;23;20020;-78
2022/08/26 17:59:53;;;;;;;2.25;0.77;;;22.70;86.50;;;21.84;53.83;101292.91;5097255;23;20005;-78
2022/08/26 18:01:57;;;;;;;3.40;0.85;;;22.60;87.60;;;21.76;54.24;101301.22;5097671;23;20040;-78
2022/08/26 18:03:58;;;;;;;4.22;0.88;;;22.50;87.50;;;21.68;54.22;101302.31;5123264;23;20033;-78
2022/08/26 18:05:59;;;;;;;2.72;0.75;;;22.50;87.80;;;21.59;54.76;101297.41;5072969;23;20009;-78
2022/08/26 18:08:01;;;;;;;5.35;0.80;;;22.40;88.20;;;21.43;55.07;101291.47;5123040;23;20005;-78
2022/08/26 18:10:03;;;;;;;6.38;0.80;;;22.30;88.60;;;21.37;55.24;101297.72;5097227;23;20006;-79
2022/08/26 18:12:05;;;;;;;3.43;0.90;;;22.20;88.50;;;21.22;55.42;101290.94;5097379;23;20009;-78
2022/08/26 18:14:06;;;;;;;2.95;0.70;;;22.00;89.40;;;21.11;55.80;101283.56;5123291;23;20004;-78
2022/08/26 18:16:09;;;;;;;4.03;1.00;;;21.90;89.40;;;21.03;55.91;101287.25;5123558;23;20020;-78
2022/08/26 18:18:11;;;;;;;5.05;0.70;;;21.80;89.40;;;20.96;56.79;101292.66;5121426;23;20148;-78
2022/08/26 18:20:17;;;;;;;4.90;0.70;;;21.70;90.00;;;20.85;56.12;101290.59;5098647;23;20005;-78
2022/08/26 18:22:18;;;;;;;4.75;1.30;;;21.60;89.60;;;20.69;56.93;101279.53;5072644;23;20024;-78
2022/08/26 18:24:19;;;;;;;2.58;0.85;;;21.60;90.00;;;20.63;56.71;101294.59;5097390;23;20478;-78
2022/08/26 18:26:29;;;;;;;3.85;0.80;;;21.50;90.10;;;20.57;56.92;101292.72;5097054;23;20012;-78
2022/08/26 18:28:30;;;;;;;2.58;0.93;;;21.40;90.10;;;20.53;57.50;101296.03;5097075;23;20045;-77
2022/08/26 18:30:31;;;;;;;3.20;1.00;;;21.30;90.20;;;20.44;57.82;101303.44;5098528;23;20508;-78
2022/08/26 18:32:32;;;;;;;2.25;0.70;;;21.20;90.40;;;20.33;58.27;101306.75;5096540;23;20101;-78
2022/08/26 18:34:34;;;;;;;4.72;1.17;;;21.10;90.60;;;20.22;58.39;101302.00;5097009;23;20013;-78
2022/08/26 18:36:36;;;;;;;2.70;0.60;;;21.00;90.70;;;20.20;58.99;101312.91;5096648;23;20016;-78
2022/08/26 18:38:37;;;;;;;4.13;1.10;;;20.80;90.80;;;20.04;58.83;101305.25;5096870;23;20068;-79
2022/08/26 18:40:42;;;;;;;3.20;0.80;;;20.70;90.80;;;19.98;58.49;101313.28;5071749;23;20022;-78
2022/08/26 18:42:43;;;;;;;4.38;1.10;;;20.60;91.00;;;19.78;58.67;101299.84;5096943;23;20041;-78
2022/08/26 18:44:44;;;;;;;3.05;0.80;;;20.50;90.70;;;19.78;59.15;101316.75;5098628;23;20013;-78
2022/08/26 18:46:46;;;;;;;2.45;0.70;;;20.40;91.00;;;19.66;59.77;101304.13;5072534;23;20006;-78
2022/08/26 18:48:47;;;;;;;2.13;0.60;;;20.30;91.20;;;19.52;60.02;101299.78;5072655;23;20009;-78
2022/08/26 18:50:48;;;;;;;3.90;1.20;;;20.30;91.30;;;19.42;60.56;101302.00;5096755;23;20009;-78
2022/08/26 18:52:49;;;;;;;4.95;1.00;;;20.10;91.40;;;19.29;60.24;101300.06;5096505;23;20010;-78
2022/08/26 18:54:50;;;;;;;4.55;1.00;;;20.10;91.30;;;19.35;60.30;101326.03;5097179;23;20005;-78
2022/08/26 18:56:51;;;;;;;2.50;0.70;;;20.00;91.40;;;19.23;61.03;101324.94;5098342;23;20016;-78
2022/08/26 18:58:51;;;;;;;4.63;0.93;;;19.90;91.60;;;19.01;60.86;101312.69;5098330;23;20084;-78
2022/08/26 19:00:52;;;;;;;5.53;1.02;;;19.80;91.60;;;19.14;61.17;101335.00;5097181;23;20006;-78
2022/08/26 19:02:54;;;;;;;3.78;1.40;;;19.70;91.70;;;19.01;61.51;101312.69;5098273;23;20013;-78
2022/08/26 19:04:55;;;;;;;2.40;0.80;;;19.60;91.90;;;18.87;62.29;101314.47;5098318;23;20033;-78
2022/08/26 19:06:56;;;;;;;3.50;0.68;;;19.50;92.10;;;18.75;62.89;101321.38;5097970;23;20008;-78
2022/08/26 19:08:58;;;;;;;6.88;1.33;;;19.40;92.30;;;18.66;63.44;101323.38;5098254;23;20001;-78
2022/08/26 19:10:59;;;;;;;2.47;0.90;;;19.40;92.40;;;18.59;63.66;101318.97;5096855;23;20013;-78
2022/08/26 19:13:00;;;;;;;2.90;0.85;;;19.30;92.60;;;18.65;64.29;101343.09;5096840;23;20489;-78
2022/08/26 19:15:01;;;;;;;7.82;1.45;;;19.20;92.80;;;18.36;65.07;101310.34;5096870;23;20010;-78
2022/08/26 19:17:03;;;;;;;3.45;0.93;;;19.10;93.10;;;18.35;65.39;101322.88;5098229;23;20427;-78
2022/08/26 19:19:04;;;;;;;5.68;1.20;;;19.10;93.20;;;18.34;65.80;101342.56;5096806;23;20516;-78
2022/08/26 19:21:05;;;;;;;3.17;0.70;;;19.00;93.30;;;18.30;66.27;101344.00;5097117;23;20005;-78
2022/08/26 19:23:07;;;;;;;3.97;1.10;;;18.90;93.50;;;18.11;66.73;101325.91;5096578;23;20014;-78
2022/08/26 19:25:09;;;;;;;2.88;0.98;;;18.80;93.70;;;18.02;67.42;101329.72;5098160;23;20012;-78
2022/08/26 19:27:10;;;;;;;4.53;1.55;;;18.70;93.90;;;18.11;68.08;101357.97;5121583;23;20012;-78
2022/08/26 19:29:12;;;;;;;4.00;1.00;;;18.60;94.10;;;17.96;68.77;101352.69;5098222;23;20430;-78
2022/08/26 19:31:13;;;;;;;4.50;0.73;;;18.60;94.30;;;17.80;69.63;101338.75;5121516;23;20457;-78
2022/08/26 19:33:14;;;;;;;8.10;2.10;;;18.50;94.70;;;17.79;70.15;101351.28;5096879;23;20005;-78
2022/08/26 19:35:15;;;;;;;3.42;1.00;;;18.40;94.80;;;17.66;70.93;101346.59;5096812;23;20013;-78
2022/08/26 19:37:18;;;;;;;3.13;1.55;;;18.30;95.10;;;17.65;71.27;101355.59;5097916;23;20009;-78
2022/08/26 19:39:20;;;;;;;4.57;1.00;;;18.20;95.20;;;17.43;71.97;101339.72;5072529;23;20009;-78
2022/08/26 19:41:27;;;;;;;3.03;1.05;;;18.20;95.50;;;17.43;72.47;101353.88;5121315;23;20037;-78
2022/08/26 19:43:28;;;;;;;2.28;0.70;;;18.10;95.60;;;17.36;73.64;101350.28;5098119;23;20346;-78
2022/08/26 19:45:30;;;;;;;6.75;1.13;;;18.00;96.00;;;17.24;74.02;101342.94;5098126;23;20008;-78
2022/08/26 19:47:31;;;;;;;4.18;0.88;;;17.90;96.20;;;17.16;75.09;101343.88;5096328;23;20005;-77
2022/08/26 19:49:33;;;;;;;2.50;0.70;;;17.80;96.50;;;17.14;75.63;101356.56;5096615;23;20064;-78
2022/08/26 19:51:35;;;;;;;3.28;0.80;;;17.80;96.70;;;17.06;76.15;101345.97;5071963;23;20045;-77
2022/08/26 19:53:36;;;;;;;7.40;1.33;;;17.70;96.90;;;17.05;77.00;101349.66;5098162;23;20009;-78
2022/08/26 19:55:37;;;;;;;4.90;1.02;;;17.70;97.20;;;16.98;77.54;101346.06;5097636;23;20068;-77